sensor_id;sensor_type;location;lat;lon;timestamp;P1;durP1;ratioP1;P2;durP2;ratioP2
14817;SDS011;7500;57.698;11.986;2022-10-22T00:01:01;25.03;;;13.90;;
14817;SDS011;7500;57.698;11.986;2022-10-22T00:03:29;41.43;;;18.77;;
14817;SDS011;7500;57.698;11.986;2022-10-22T00:05:55;21.43;;;13.83;;
14817;SDS011;7500;57.698;11.986;2022-10-22T00:08:22;17.33;;;11.80;;
14817;SDS011;7500;57.698;11.986;2022-10-22T00:10:49;21.80;;;14.13;;
14817;SDS011;7500;57.698;11.986;2022-10-22T00:13:17;17.23;;;11.20;;
14817;SDS011;7500;57.698;11.986;2022-10-22T00:15:45;20.10;;;13.33;;
14817;SDS011;7500;57.698;11.986;2022-10-22T00:18:12;35.30;;;16.73;;
14817;SDS011;7500;57.698;11.986;2022-10-22T00:20:39;20.87;;;13.13;;
14817;SDS011;7500;57.698;11.986;2022-10-22T00:23:05;13.37;;;11.73;;
14817;SDS011;7500;57.698;11.986;2022-10-22T00:25:33;12.03;;;10.67;;
14817;SDS011;7500;57.698;11.986;2022-10-22T00:28:00;19.10;;;12.93;;
14817;SDS011;7500;57.698;11.986;2022-10-22T00:30:27;16.33;;;12.70;;
14817;SDS011;7500;57.698;11.986;2022-10-22T00:32:55;34.50;;;17.20;;
14817;SDS011;7500;57.698;11.986;2022-10-22T00:35:22;41.43;;;18.47;;
14817;SDS011;7500;57.698;11.986;2022-10-22T00:37:49;42.50;;;19.10;;
14817;SDS011;7500;57.698;11.986;2022-10-22T00:40:16;20.93;;;14.23;;
14817;SDS011;7500;57.698;11.986;2022-10-22T00:42:43;14.90;;;12.43;;
14817;SDS011;7500;57.698;11.986;2022-10-22T00:45:20;22.60;;;10.73;;
14817;SDS011;7500;57.698;11.986;2022-10-22T00:47:50;11.17;;;10.07;;
14817;SDS011;7500;57.698;11.986;2022-10-22T00:50:22;17.17;;;12.53;;
14817;SDS011;7500;57.698;11.986;2022-10-22T00:52:52;14.13;;;10.53;;
14817;SDS011;7500;57.698;11.986;2022-10-22T00:55:20;22.63;;;14.77;;
14817;SDS011;7500;57.698;11.986;2022-10-22T00:57:49;28.27;;;16.20;;
14817;SDS011;7500;57.698;11.986;2022-10-22T01:00:16;13.17;;;10.50;;
14817;SDS011;7500;57.698;11.986;2022-10-22T01:02:44;20.63;;;13.33;;
14817;SDS011;7500;57.698;11.986;2022-10-22T01:05:11;12.93;;;11.50;;
14817;SDS011;7500;57.698;11.986;2022-10-22T01:07:41;16.23;;;12.73;;
14817;SDS011;7500;57.698;11.986;2022-10-22T01:10:12;18.13;;;12.93;;
14817;SDS011;7500;57.698;11.986;2022-10-22T01:12:50;11.53;;;10.10;;
14817;SDS011;7500;57.698;11.986;2022-10-22T01:15:28;14.00;;;11.70;;
14817;SDS011;7500;57.698;11.986;2022-10-22T01:18:04;14.47;;;10.30;;
14817;SDS011;7500;57.698;11.986;2022-10-22T01:23:49;36.13;;;17.70;;
14817;SDS011;7500;57.698;11.986;2022-10-22T01:26:35;21.23;;;14.50;;
14817;SDS011;7500;57.698;11.986;2022-10-22T01:29:10;17.30;;;12.67;;
14817;SDS011;7500;57.698;11.986;2022-10-22T01:31:42;18.90;;;13.80;;
14817;SDS011;7500;57.698;11.986;2022-10-22T01:34:13;21.40;;;13.67;;
14817;SDS011;7500;57.698;11.986;2022-10-22T01:36:42;19.00;;;13.70;;
14817;SDS011;7500;57.698;11.986;2022-10-22T01:39:11;13.30;;;11.47;;
14817;SDS011;7500;57.698;11.986;2022-10-22T01:41:42;18.97;;;14.07;;
14817;SDS011;7500;57.698;11.986;2022-10-22T01:44:22;16.03;;;13.00;;
14817;SDS011;7500;57.698;11.986;2022-10-22T01:46:55;12.37;;;11.07;;
14817;SDS011;7500;57.698;11.986;2022-10-22T01:49:32;23.87;;;14.80;;
14817;SDS011;7500;57.698;11.986;2022-10-22T01:52:10;15.90;;;12.23;;
14817;SDS011;7500;57.698;11.986;2022-10-22T01:54:51;17.87;;;12.70;;
14817;SDS011;7500;57.698;11.986;2022-10-22T01:57:27;21.37;;;14.80;;
14817;SDS011;7500;57.698;11.986;2022-10-22T02:00:03;18.30;;;13.87;;
14817;SDS011;7500;57.698;11.986;2022-10-22T02:02:35;25.23;;;15.03;;
14817;SDS011;7500;57.698;11.986;2022-10-22T02:05:09;17.43;;;13.40;;
14817;SDS011;7500;57.698;11.986;2022-10-22T02:07:42;27.83;;;17.00;;
14817;SDS011;7500;57.698;11.986;2022-10-22T02:10:12;15.37;;;12.37;;
14817;SDS011;7500;57.698;11.986;2022-10-22T02:12:39;27.47;;;15.63;;
14817;SDS011;7500;57.698;11.986;2022-10-22T02:15:11;36.93;;;18.87;;
14817;SDS011;7500;57.698;11.986;2022-10-22T02:17:39;24.10;;;15.27;;
14817;SDS011;7500;57.698;11.986;2022-10-22T02:20:09;44.63;;;19.63;;
14817;SDS011;7500;57.698;11.986;2022-10-22T02:22:41;31.90;;;16.80;;
14817;SDS011;7500;57.698;11.986;2022-10-22T02:25:08;33.80;;;18.33;;
14817;SDS011;7500;57.698;11.986;2022-10-22T02:27:38;25.90;;;16.10;;
14817;SDS011;7500;57.698;11.986;2022-10-22T02:30:11;35.57;;;18.27;;
14817;SDS011;7500;57.698;11.986;2022-10-22T02:32:43;32.00;;;18.47;;
14817;SDS011;7500;57.698;11.986;2022-10-22T02:35:16;33.87;;;17.27;;
14817;SDS011;7500;57.698;11.986;2022-10-22T02:37:46;21.40;;;13.77;;
14817;SDS011;7500;57.698;11.986;2022-10-22T02:40:14;38.27;;;18.10;;
14817;SDS011;7500;57.698;11.986;2022-10-22T02:42:42;30.97;;;16.37;;
14817;SDS011;7500;57.698;11.986;2022-10-22T02:45:13;23.73;;;15.43;;
14817;SDS011;7500;57.698;11.986;2022-10-22T02:47:40;20.50;;;14.07;;
14817;SDS011;7500;57.698;11.986;2022-10-22T02:50:07;32.40;;;17.20;;
14817;SDS011;7500;57.698;11.986;2022-10-22T02:52:34;24.50;;;15.90;;
14817;SDS011;7500;57.698;11.986;2022-10-22T02:55:01;21.90;;;15.20;;
14817;SDS011;7500;57.698;11.986;2022-10-22T02:57:28;34.13;;;18.07;;
14817;SDS011;7500;57.698;11.986;2022-10-22T02:59:55;50.63;;;20.57;;
14817;SDS011;7500;57.698;11.986;2022-10-22T03:02:23;25.37;;;15.97;;
14817;SDS011;7500;57.698;11.986;2022-10-22T03:04:49;29.33;;;17.67;;
14817;SDS011;7500;57.698;11.986;2022-10-22T03:07:16;46.03;;;21.30;;
14817;SDS011;7500;57.698;11.986;2022-10-22T03:09:43;35.83;;;18.87;;
14817;SDS011;7500;57.698;11.986;2022-10-22T03:12:10;19.93;;;14.80;;
14817;SDS011;7500;57.698;11.986;2022-10-22T03:14:37;15.67;;;12.67;;
14817;SDS011;7500;57.698;11.986;2022-10-22T03:17:04;23.87;;;15.67;;
14817;SDS011;7500;57.698;11.986;2022-10-22T03:19:32;26.93;;;15.93;;
14817;SDS011;7500;57.698;11.986;2022-10-22T03:22:01;23.47;;;13.93;;
14817;SDS011;7500;57.698;11.986;2022-10-22T03:24:33;29.97;;;17.00;;
14817;SDS011;7500;57.698;11.986;2022-10-22T03:27:02;26.40;;;16.03;;
14817;SDS011;7500;57.698;11.986;2022-10-22T03:29:29;36.77;;;17.27;;
14817;SDS011;7500;57.698;11.986;2022-10-22T03:31:58;44.97;;;19.73;;
14817;SDS011;7500;57.698;11.986;2022-10-22T03:34:25;25.23;;;15.63;;
14817;SDS011;7500;57.698;11.986;2022-10-22T03:36:55;12.87;;;11.27;;
14817;SDS011;7500;57.698;11.986;2022-10-22T03:39:24;15.97;;;12.10;;
14817;SDS011;7500;57.698;11.986;2022-10-22T03:41:52;11.27;;;9.43;;
14817;SDS011;7500;57.698;11.986;2022-10-22T03:44:19;19.93;;;13.40;;
14817;SDS011;7500;57.698;11.986;2022-10-22T03:46:47;13.73;;;10.63;;
14817;SDS011;7500;57.698;11.986;2022-10-22T03:49:14;27.60;;;15.50;;
14817;SDS011;7500;57.698;11.986;2022-10-22T03:51:41;15.97;;;12.30;;
14817;SDS011;7500;57.698;11.986;2022-10-22T03:54:10;15.73;;;12.73;;
14817;SDS011;7500;57.698;11.986;2022-10-22T03:56:36;20.60;;;13.27;;
14817;SDS011;7500;57.698;11.986;2022-10-22T03:59:03;12.40;;;10.47;;
14817;SDS011;7500;57.698;11.986;2022-10-22T04:01:30;12.63;;;10.83;;
14817;SDS011;7500;57.698;11.986;2022-10-22T04:03:58;15.80;;;12.07;;
14817;SDS011;7500;57.698;11.986;2022-10-22T04:06:25;15.77;;;11.27;;
14817;SDS011;7500;57.698;11.986;2022-10-22T04:08:52;26.67;;;15.93;;
14817;SDS011;7500;57.698;11.986;2022-10-22T04:11:20;16.80;;;12.30;;
14817;SDS011;7500;57.698;11.986;2022-10-22T04:13:47;12.30;;;9.87;;
14817;SDS011;7500;57.698;11.986;2022-10-22T04:16:14;14.23;;;10.80;;
14817;SDS011;7500;57.698;11.986;2022-10-22T04:18:43;18.40;;;12.10;;
14817;SDS011;7500;57.698;11.986;2022-10-22T04:21:11;20.00;;;13.30;;
14817;SDS011;7500;57.698;11.986;2022-10-22T04:23:43;14.73;;;11.63;;
14817;SDS011;7500;57.698;11.986;2022-10-22T04:26:10;18.97;;;12.90;;
14817;SDS011;7500;57.698;11.986;2022-10-22T04:28:38;18.60;;;12.13;;
14817;SDS011;7500;57.698;11.986;2022-10-22T04:31:08;23.90;;;14.00;;
14817;SDS011;7500;57.698;11.986;2022-10-22T04:33:36;12.73;;;10.63;;
14817;SDS011;7500;57.698;11.986;2022-10-22T04:36:07;15.70;;;12.00;;
14817;SDS011;7500;57.698;11.986;2022-10-22T04:38:35;10.57;;;8.90;;
14817;SDS011;7500;57.698;11.986;2022-10-22T04:41:09;12.33;;;9.83;;
14817;SDS011;7500;57.698;11.986;2022-10-22T04:43:37;31.40;;;14.47;;
14817;SDS011;7500;57.698;11.986;2022-10-22T04:46:05;22.10;;;13.57;;
14817;SDS011;7500;57.698;11.986;2022-10-22T04:48:33;27.17;;;14.27;;
14817;SDS011;7500;57.698;11.986;2022-10-22T04:51:00;15.40;;;10.83;;
14817;SDS011;7500;57.698;11.986;2022-10-22T04:53:27;17.13;;;11.63;;
14817;SDS011;7500;57.698;11.986;2022-10-22T04:55:54;11.43;;;9.17;;
14817;SDS011;7500;57.698;11.986;2022-10-22T04:58:20;23.73;;;14.63;;
14817;SDS011;7500;57.698;11.986;2022-10-22T05:00:49;31.80;;;16.20;;
14817;SDS011;7500;57.698;11.986;2022-10-22T05:03:15;10.70;;;8.90;;
14817;SDS011;7500;57.698;11.986;2022-10-22T05:05:42;9.30;;;7.50;;
14817;SDS011;7500;57.698;11.986;2022-10-22T05:08:09;11.07;;;9.30;;
14817;SDS011;7500;57.698;11.986;2022-10-22T05:10:36;8.43;;;7.57;;
14817;SDS011;7500;57.698;11.986;2022-10-22T05:13:02;22.63;;;12.53;;
14817;SDS011;7500;57.698;11.986;2022-10-22T05:15:29;8.97;;;7.97;;
14817;SDS011;7500;57.698;11.986;2022-10-22T05:17:57;8.43;;;7.63;;
14817;SDS011;7500;57.698;11.986;2022-10-22T05:20:24;12.60;;;9.53;;
14817;SDS011;7500;57.698;11.986;2022-10-22T05:22:51;20.00;;;12.53;;
14817;SDS011;7500;57.698;11.986;2022-10-22T05:25:18;24.17;;;13.93;;
14817;SDS011;7500;57.698;11.986;2022-10-22T05:27:47;23.00;;;13.13;;
14817;SDS011;7500;57.698;11.986;2022-10-22T05:30:14;8.20;;;7.27;;
14817;SDS011;7500;57.698;11.986;2022-10-22T05:32:41;8.57;;;7.67;;
14817;SDS011;7500;57.698;11.986;2022-10-22T05:35:10;10.10;;;9.00;;
14817;SDS011;7500;57.698;11.986;2022-10-22T05:37:36;15.70;;;10.40;;
14817;SDS011;7500;57.698;11.986;2022-10-22T05:40:04;14.77;;;10.43;;
14817;SDS011;7500;57.698;11.986;2022-10-22T05:42:31;25.17;;;13.77;;
14817;SDS011;7500;57.698;11.986;2022-10-22T05:44:58;24.27;;;13.30;;
14817;SDS011;7500;57.698;11.986;2022-10-22T05:47:27;8.10;;;7.30;;
14817;SDS011;7500;57.698;11.986;2022-10-22T05:49:54;20.17;;;10.37;;
14817;SDS011;7500;57.698;11.986;2022-10-22T05:52:23;9.93;;;8.60;;
14817;SDS011;7500;57.698;11.986;2022-10-22T05:54:51;14.53;;;10.57;;
14817;SDS011;7500;57.698;11.986;2022-10-22T05:57:17;17.57;;;12.00;;
14817;SDS011;7500;57.698;11.986;2022-10-22T05:59:44;21.57;;;13.17;;
14817;SDS011;7500;57.698;11.986;2022-10-22T06:02:11;7.57;;;6.87;;
14817;SDS011;7500;57.698;11.986;2022-10-22T06:04:38;9.83;;;8.43;;
14817;SDS011;7500;57.698;11.986;2022-10-22T06:07:05;22.37;;;12.10;;
14817;SDS011;7500;57.698;11.986;2022-10-22T06:09:41;8.23;;;6.80;;
14817;SDS011;7500;57.698;11.986;2022-10-22T06:12:08;7.63;;;6.13;;
14817;SDS011;7500;57.698;11.986;2022-10-22T06:14:37;7.33;;;5.90;;
14817;SDS011;7500;57.698;11.986;2022-10-22T06:17:04;8.97;;;7.17;;
14817;SDS011;7500;57.698;11.986;2022-10-22T06:19:31;11.13;;;8.33;;
14817;SDS011;7500;57.698;11.986;2022-10-22T06:21:58;8.37;;;7.33;;
14817;SDS011;7500;57.698;11.986;2022-10-22T06:24:25;14.67;;;10.77;;
14817;SDS011;7500;57.698;11.986;2022-10-22T06:26:53;9.80;;;8.17;;
14817;SDS011;7500;57.698;11.986;2022-10-22T06:29:20;19.00;;;11.77;;
14817;SDS011;7500;57.698;11.986;2022-10-22T06:31:47;7.23;;;6.53;;
14817;SDS011;7500;57.698;11.986;2022-10-22T06:34:14;12.47;;;9.57;;
14817;SDS011;7500;57.698;11.986;2022-10-22T06:36:43;8.70;;;7.33;;
14817;SDS011;7500;57.698;11.986;2022-10-22T06:39:10;10.73;;;8.07;;
14817;SDS011;7500;57.698;11.986;2022-10-22T06:41:38;8.30;;;7.47;;
14817;SDS011;7500;57.698;11.986;2022-10-22T06:44:07;10.00;;;8.30;;
14817;SDS011;7500;57.698;11.986;2022-10-22T06:46:39;9.13;;;8.17;;
14817;SDS011;7500;57.698;11.986;2022-10-22T06:49:05;20.07;;;12.03;;
14817;SDS011;7500;57.698;11.986;2022-10-22T06:51:32;8.13;;;6.70;;
14817;SDS011;7500;57.698;11.986;2022-10-22T06:53:59;12.47;;;9.53;;
14817;SDS011;7500;57.698;11.986;2022-10-22T06:56:26;7.00;;;6.03;;
14817;SDS011;7500;57.698;11.986;2022-10-22T06:58:54;11.73;;;9.07;;
14817;SDS011;7500;57.698;11.986;2022-10-22T07:01:25;9.40;;;7.73;;
14817;SDS011;7500;57.698;11.986;2022-10-22T07:03:53;8.17;;;7.37;;
14817;SDS011;7500;57.698;11.986;2022-10-22T07:06:20;10.57;;;7.37;;
14817;SDS011;7500;57.698;11.986;2022-10-22T07:08:48;12.47;;;8.17;;
14817;SDS011;7500;57.698;11.986;2022-10-22T07:11:16;14.60;;;9.80;;
14817;SDS011;7500;57.698;11.986;2022-10-22T07:13:44;8.53;;;7.67;;
14817;SDS011;7500;57.698;11.986;2022-10-22T07:16:12;15.13;;;11.20;;
14817;SDS011;7500;57.698;11.986;2022-10-22T07:18:41;18.07;;;10.97;;
14817;SDS011;7500;57.698;11.986;2022-10-22T07:21:08;11.77;;;9.20;;
14817;SDS011;7500;57.698;11.986;2022-10-22T07:23:37;7.80;;;7.00;;
14817;SDS011;7500;57.698;11.986;2022-10-22T07:26:04;7.07;;;6.37;;
14817;SDS011;7500;57.698;11.986;2022-10-22T07:28:32;7.90;;;7.10;;
14817;SDS011;7500;57.698;11.986;2022-10-22T07:31:00;13.50;;;10.27;;
14817;SDS011;7500;57.698;11.986;2022-10-22T07:33:27;9.27;;;8.03;;
14817;SDS011;7500;57.698;11.986;2022-10-22T07:35:58;6.80;;;5.83;;
14817;SDS011;7500;57.698;11.986;2022-10-22T07:38:25;5.73;;;5.23;;
14817;SDS011;7500;57.698;11.986;2022-10-22T07:40:53;6.57;;;5.97;;
14817;SDS011;7500;57.698;11.986;2022-10-22T07:43:20;6.40;;;5.80;;
14817;SDS011;7500;57.698;11.986;2022-10-22T07:45:47;7.67;;;6.67;;
14817;SDS011;7500;57.698;11.986;2022-10-22T07:48:14;6.60;;;6.00;;
14817;SDS011;7500;57.698;11.986;2022-10-22T07:50:41;7.43;;;6.40;;
14817;SDS011;7500;57.698;11.986;2022-10-22T07:53:09;7.23;;;6.33;;
14817;SDS011;7500;57.698;11.986;2022-10-22T07:55:36;11.00;;;8.67;;
14817;SDS011;7500;57.698;11.986;2022-10-22T07:58:03;11.00;;;9.47;;
14817;SDS011;7500;57.698;11.986;2022-10-22T08:00:29;10.97;;;8.60;;
14817;SDS011;7500;57.698;11.986;2022-10-22T08:02:56;6.20;;;5.63;;
14817;SDS011;7500;57.698;11.986;2022-10-22T08:05:23;16.43;;;9.73;;
14817;SDS011;7500;57.698;11.986;2022-10-22T08:07:50;18.30;;;12.37;;
14817;SDS011;7500;57.698;11.986;2022-10-22T08:10:18;16.13;;;10.33;;
14817;SDS011;7500;57.698;11.986;2022-10-22T08:12:45;13.93;;;10.43;;
14817;SDS011;7500;57.698;11.986;2022-10-22T08:15:12;6.50;;;5.20;;
14817;SDS011;7500;57.698;11.986;2022-10-22T08:17:39;6.07;;;5.50;;
14817;SDS011;7500;57.698;11.986;2022-10-22T08:20:06;8.87;;;6.63;;
14817;SDS011;7500;57.698;11.986;2022-10-22T08:22:34;9.77;;;7.80;;
14817;SDS011;7500;57.698;11.986;2022-10-22T08:25:00;12.80;;;8.93;;
14817;SDS011;7500;57.698;11.986;2022-10-22T08:27:29;12.63;;;9.27;;
14817;SDS011;7500;57.698;11.986;2022-10-22T08:29:56;12.70;;;9.30;;
14817;SDS011;7500;57.698;11.986;2022-10-22T08:32:22;9.67;;;7.60;;
14817;SDS011;7500;57.698;11.986;2022-10-22T08:34:49;18.97;;;11.67;;
14817;SDS011;7500;57.698;11.986;2022-10-22T08:37:16;10.23;;;8.03;;
14817;SDS011;7500;57.698;11.986;2022-10-22T08:39:43;11.20;;;9.00;;
14817;SDS011;7500;57.698;11.986;2022-10-22T08:42:18;7.47;;;6.70;;
14817;SDS011;7500;57.698;11.986;2022-10-22T08:45:02;5.53;;;5.03;;
14817;SDS011;7500;57.698;11.986;2022-10-22T08:47:40;5.90;;;5.30;;
14817;SDS011;7500;57.698;11.986;2022-10-22T08:50:26;6.17;;;5.40;;
14817;SDS011;7500;57.698;11.986;2022-10-22T08:52:59;5.87;;;5.30;;
14817;SDS011;7500;57.698;11.986;2022-10-22T08:55:30;7.10;;;5.97;;
14817;SDS011;7500;57.698;11.986;2022-10-22T08:58:00;9.13;;;6.17;;
14817;SDS011;7500;57.698;11.986;2022-10-22T09:00:35;7.07;;;6.37;;
14817;SDS011;7500;57.698;11.986;2022-10-22T09:03:10;7.93;;;6.07;;
14817;SDS011;7500;57.698;11.986;2022-10-22T09:05:54;6.60;;;6.00;;
14817;SDS011;7500;57.698;11.986;2022-10-22T09:08:25;9.20;;;7.00;;
14817;SDS011;7500;57.698;11.986;2022-10-22T09:10:53;7.27;;;6.57;;
14817;SDS011;7500;57.698;11.986;2022-10-22T09:13:24;7.40;;;6.07;;
14817;SDS011;7500;57.698;11.986;2022-10-22T09:15:53;9.83;;;8.00;;
14817;SDS011;7500;57.698;11.986;2022-10-22T09:18:31;6.73;;;6.13;;
14817;SDS011;7500;57.698;11.986;2022-10-22T09:21:05;8.00;;;7.20;;
14817;SDS011;7500;57.698;11.986;2022-10-22T09:23:47;7.73;;;6.63;;
14817;SDS011;7500;57.698;11.986;2022-10-22T09:26:21;7.70;;;6.90;;
14817;SDS011;7500;57.698;11.986;2022-10-22T09:28:48;7.67;;;6.87;;
14817;SDS011;7500;57.698;11.986;2022-10-22T09:31:17;7.60;;;6.23;;
14817;SDS011;7500;57.698;11.986;2022-10-22T09:33:45;11.63;;;8.37;;
14817;SDS011;7500;57.698;11.986;2022-10-22T09:36:18;16.27;;;9.60;;
14817;SDS011;7500;57.698;11.986;2022-10-22T09:38:48;11.10;;;8.63;;
14817;SDS011;7500;57.698;11.986;2022-10-22T09:41:18;15.97;;;10.20;;
14817;SDS011;7500;57.698;11.986;2022-10-22T09:43:45;14.30;;;9.43;;
14817;SDS011;7500;57.698;11.986;2022-10-22T09:46:14;13.30;;;9.83;;
14817;SDS011;7500;57.698;11.986;2022-10-22T09:48:46;11.53;;;8.37;;
14817;SDS011;7500;57.698;11.986;2022-10-22T09:51:17;7.30;;;6.07;;
14817;SDS011;7500;57.698;11.986;2022-10-22T09:53:46;7.07;;;6.37;;
14817;SDS011;7500;57.698;11.986;2022-10-22T09:56:22;6.00;;;5.40;;
14817;SDS011;7500;57.698;11.986;2022-10-22T09:58:51;10.37;;;7.93;;
14817;SDS011;7500;57.698;11.986;2022-10-22T10:01:19;8.97;;;6.80;;
14817;SDS011;7500;57.698;11.986;2022-10-22T10:03:50;5.20;;;4.60;;
14817;SDS011;7500;57.698;11.986;2022-10-22T10:06:18;8.40;;;6.77;;
14817;SDS011;7500;57.698;11.986;2022-10-22T10:08:46;9.33;;;7.47;;
14817;SDS011;7500;57.698;11.986;2022-10-22T10:11:16;10.47;;;7.80;;
14817;SDS011;7500;57.698;11.986;2022-10-22T10:13:52;10.93;;;7.80;;
14817;SDS011;7500;57.698;11.986;2022-10-22T10:16:32;11.37;;;8.30;;
14817;SDS011;7500;57.698;11.986;2022-10-22T10:19:16;6.80;;;6.10;;
14817;SDS011;7500;57.698;11.986;2022-10-22T10:21:54;6.87;;;6.17;;
14817;SDS011;7500;57.698;11.986;2022-10-22T10:24:32;6.83;;;6.20;;
14817;SDS011;7500;57.698;11.986;2022-10-22T10:27:11;6.87;;;6.27;;
14817;SDS011;7500;57.698;11.986;2022-10-22T10:29:47;8.50;;;6.53;;
14817;SDS011;7500;57.698;11.986;2022-10-22T10:32:23;8.33;;;7.33;;
14817;SDS011;7500;57.698;11.986;2022-10-22T10:35:01;8.50;;;7.40;;
14817;SDS011;7500;57.698;11.986;2022-10-22T10:37:40;7.60;;;6.90;;
14817;SDS011;7500;57.698;11.986;2022-10-22T10:40:15;8.07;;;7.30;;
14817;SDS011;7500;57.698;11.986;2022-10-22T10:42:50;7.30;;;6.30;;
14817;SDS011;7500;57.698;11.986;2022-10-22T10:45:23;8.80;;;7.87;;
14817;SDS011;7500;57.698;11.986;2022-10-22T10:48:10;8.70;;;7.90;;
14817;SDS011;7500;57.698;11.986;2022-10-22T10:50:55;10.60;;;9.50;;
14817;SDS011;7500;57.698;11.986;2022-10-22T10:53:33;9.13;;;8.23;;
14817;SDS011;7500;57.698;11.986;2022-10-22T10:56:13;7.90;;;6.90;;
14817;SDS011;7500;57.698;11.986;2022-10-22T10:58:55;7.27;;;6.60;;
14817;SDS011;7500;57.698;11.986;2022-10-22T11:01:33;6.53;;;5.83;;
14817;SDS011;7500;57.698;11.986;2022-10-22T11:07:13;6.33;;;5.80;;
14817;SDS011;7500;57.698;11.986;2022-10-22T11:09:47;7.67;;;6.87;;
14817;SDS011;7500;57.698;11.986;2022-10-22T11:12:20;5.77;;;5.17;;
14817;SDS011;7500;57.698;11.986;2022-10-22T11:14:55;5.90;;;5.40;;
14817;SDS011;7500;57.698;11.986;2022-10-22T11:17:28;8.40;;;7.20;;
14817;SDS011;7500;57.698;11.986;2022-10-22T11:20:02;7.33;;;6.63;;
14817;SDS011;7500;57.698;11.986;2022-10-22T11:22:34;5.13;;;4.63;;
14817;SDS011;7500;57.698;11.986;2022-10-22T11:25:11;5.13;;;4.73;;
14817;SDS011;7500;57.698;11.986;2022-10-22T11:27:44;5.10;;;4.60;;
14817;SDS011;7500;57.698;11.986;2022-10-22T11:30:15;4.40;;;4.00;;
14817;SDS011;7500;57.698;11.986;2022-10-22T11:32:43;5.47;;;4.97;;
14817;SDS011;7500;57.698;11.986;2022-10-22T11:35:13;5.37;;;4.87;;
14817;SDS011;7500;57.698;11.986;2022-10-22T11:37:44;7.30;;;5.97;;
14817;SDS011;7500;57.698;11.986;2022-10-22T11:40:13;6.87;;;4.40;;
14817;SDS011;7500;57.698;11.986;2022-10-22T11:42:43;6.73;;;4.80;;
14817;SDS011;7500;57.698;11.986;2022-10-22T11:45:26;4.33;;;3.93;;
14817;SDS011;7500;57.698;11.986;2022-10-22T11:47:56;6.63;;;5.70;;
14817;SDS011;7500;57.698;11.986;2022-10-22T11:50:25;8.27;;;7.33;;
14817;SDS011;7500;57.698;11.986;2022-10-22T11:52:58;8.03;;;5.80;;
14817;SDS011;7500;57.698;11.986;2022-10-22T11:55:32;7.30;;;6.00;;
14817;SDS011;7500;57.698;11.986;2022-10-22T11:58:25;10.27;;;7.10;;
14817;SDS011;7500;57.698;11.986;2022-10-22T12:00:55;8.30;;;6.43;;
14817;SDS011;7500;57.698;11.986;2022-10-22T12:03:23;6.87;;;6.00;;
14817;SDS011;7500;57.698;11.986;2022-10-22T12:06:07;6.00;;;4.97;;
14817;SDS011;7500;57.698;11.986;2022-10-22T12:08:48;7.50;;;5.50;;
14817;SDS011;7500;57.698;11.986;2022-10-22T12:11:21;6.60;;;5.90;;
14817;SDS011;7500;57.698;11.986;2022-10-22T12:16:50;7.37;;;6.17;;
14817;SDS011;7500;57.698;11.986;2022-10-22T12:19:23;6.37;;;5.83;;
14817;SDS011;7500;57.698;11.986;2022-10-22T12:21:52;9.07;;;6.53;;
14817;SDS011;7500;57.698;11.986;2022-10-22T12:24:24;6.53;;;5.63;;
14817;SDS011;7500;57.698;11.986;2022-10-22T12:26:57;7.17;;;6.47;;
14817;SDS011;7500;57.698;11.986;2022-10-22T12:29:24;7.60;;;6.80;;
14817;SDS011;7500;57.698;11.986;2022-10-22T12:31:52;7.23;;;6.53;;
14817;SDS011;7500;57.698;11.986;2022-10-22T12:34:21;8.80;;;7.40;;
14817;SDS011;7500;57.698;11.986;2022-10-22T12:36:50;7.43;;;6.70;;
14817;SDS011;7500;57.698;11.986;2022-10-22T12:39:19;7.97;;;5.80;;
14817;SDS011;7500;57.698;11.986;2022-10-22T12:41:48;6.80;;;6.03;;
14817;SDS011;7500;57.698;11.986;2022-10-22T12:44:15;6.70;;;5.80;;
14817;SDS011;7500;57.698;11.986;2022-10-22T12:46:43;6.33;;;5.73;;
14817;SDS011;7500;57.698;11.986;2022-10-22T12:49:13;6.70;;;6.00;;
14817;SDS011;7500;57.698;11.986;2022-10-22T12:51:43;9.20;;;6.60;;
14817;SDS011;7500;57.698;11.986;2022-10-22T12:54:15;8.57;;;6.83;;
14817;SDS011;7500;57.698;11.986;2022-10-22T12:56:50;9.57;;;7.83;;
14817;SDS011;7500;57.698;11.986;2022-10-22T12:59:19;8.50;;;7.70;;
14817;SDS011;7500;57.698;11.986;2022-10-22T13:01:47;8.23;;;6.30;;
14817;SDS011;7500;57.698;11.986;2022-10-22T13:04:21;8.47;;;7.03;;
14817;SDS011;7500;57.698;11.986;2022-10-22T13:07:04;7.60;;;6.63;;
14817;SDS011;7500;57.698;11.986;2022-10-22T13:09:41;5.97;;;5.37;;
14817;SDS011;7500;57.698;11.986;2022-10-22T13:12:11;8.60;;;6.10;;
14817;SDS011;7500;57.698;11.986;2022-10-22T13:14:41;7.00;;;5.13;;
14817;SDS011;7500;57.698;11.986;2022-10-22T13:17:10;4.97;;;4.43;;
14817;SDS011;7500;57.698;11.986;2022-10-22T13:19:44;6.27;;;4.83;;
14817;SDS011;7500;57.698;11.986;2022-10-22T13:22:30;6.03;;;5.10;;
14817;SDS011;7500;57.698;11.986;2022-10-22T13:24:58;9.20;;;6.10;;
14817;SDS011;7500;57.698;11.986;2022-10-22T13:27:31;6.27;;;5.67;;
14817;SDS011;7500;57.698;11.986;2022-10-22T13:30:00;6.23;;;4.73;;
14817;SDS011;7500;57.698;11.986;2022-10-22T13:32:34;6.07;;;4.80;;
14817;SDS011;7500;57.698;11.986;2022-10-22T13:35:01;5.67;;;4.80;;
14817;SDS011;7500;57.698;11.986;2022-10-22T13:37:30;6.90;;;5.50;;
14817;SDS011;7500;57.698;11.986;2022-10-22T13:39:58;6.03;;;5.03;;
14817;SDS011;7500;57.698;11.986;2022-10-22T13:42:25;5.50;;;4.20;;
14817;SDS011;7500;57.698;11.986;2022-10-22T13:44:53;5.37;;;4.97;;
14817;SDS011;7500;57.698;11.986;2022-10-22T13:47:24;4.67;;;4.27;;
14817;SDS011;7500;57.698;11.986;2022-10-22T13:49:53;4.97;;;4.13;;
14817;SDS011;7500;57.698;11.986;2022-10-22T13:52:27;3.60;;;3.30;;
14817;SDS011;7500;57.698;11.986;2022-10-22T13:54:59;4.40;;;4.00;;
14817;SDS011;7500;57.698;11.986;2022-10-22T13:57:26;4.60;;;3.50;;
14817;SDS011;7500;57.698;11.986;2022-10-22T13:59:54;4.13;;;3.83;;
14817;SDS011;7500;57.698;11.986;2022-10-22T14:02:21;5.93;;;3.87;;
14817;SDS011;7500;57.698;11.986;2022-10-22T14:04:49;4.47;;;4.07;;
14817;SDS011;7500;57.698;11.986;2022-10-22T14:07:17;4.37;;;3.83;;
14817;SDS011;7500;57.698;11.986;2022-10-22T14:09:44;6.00;;;4.70;;
14817;SDS011;7500;57.698;11.986;2022-10-22T14:12:11;5.20;;;4.70;;
14817;SDS011;7500;57.698;11.986;2022-10-22T14:14:39;4.57;;;4.17;;
14817;SDS011;7500;57.698;11.986;2022-10-22T14:17:09;6.10;;;5.50;;
14817;SDS011;7500;57.698;11.986;2022-10-22T14:19:41;5.63;;;5.07;;
14817;SDS011;7500;57.698;11.986;2022-10-22T14:22:14;5.53;;;5.03;;
14817;SDS011;7500;57.698;11.986;2022-10-22T14:24:41;6.47;;;5.60;;
14817;SDS011;7500;57.698;11.986;2022-10-22T14:27:09;5.07;;;4.57;;
14817;SDS011;7500;57.698;11.986;2022-10-22T14:29:37;4.83;;;4.43;;
14817;SDS011;7500;57.698;11.986;2022-10-22T14:32:05;5.30;;;4.90;;
14817;SDS011;7500;57.698;11.986;2022-10-22T14:34:37;5.53;;;5.03;;
14817;SDS011;7500;57.698;11.986;2022-10-22T14:37:04;5.33;;;4.90;;
14817;SDS011;7500;57.698;11.986;2022-10-22T14:39:38;4.20;;;3.90;;
14817;SDS011;7500;57.698;11.986;2022-10-22T14:42:06;4.60;;;4.20;;
14817;SDS011;7500;57.698;11.986;2022-10-22T14:44:35;4.40;;;4.00;;
14817;SDS011;7500;57.698;11.986;2022-10-22T14:47:02;3.90;;;3.60;;
14817;SDS011;7500;57.698;11.986;2022-10-22T14:49:30;6.07;;;5.43;;
14817;SDS011;7500;57.698;11.986;2022-10-22T14:51:57;5.13;;;4.47;;
14817;SDS011;7500;57.698;11.986;2022-10-22T14:54:24;4.97;;;4.57;;
14817;SDS011;7500;57.698;11.986;2022-10-22T14:56:50;5.90;;;4.43;;
14817;SDS011;7500;57.698;11.986;2022-10-22T14:59:17;3.83;;;3.53;;
14817;SDS011;7500;57.698;11.986;2022-10-22T15:01:44;6.97;;;4.30;;